sensor_id;sensor_type;location;lat;lon;timestamp;P1;durP1;ratioP1;P2;durP2;ratioP2
8490;SDS011;4282;49.986;7.938;2023-09-19T00:02:04;2.17;;;1.98;;
8490;SDS011;4282;49.986;7.938;2023-09-19T00:04:34;3.40;;;1.85;;
8490;SDS011;4282;49.986;7.938;2023-09-19T00:07:04;4.18;;;2.10;;
8490;SDS011;4282;49.986;7.938;2023-09-19T00:09:34;2.60;;;2.40;;
8490;SDS011;4282;49.986;7.938;2023-09-19T00:12:04;3.65;;;2.10;;
8490;SDS011;4282;49.986;7.938;2023-09-19T00:14:37;2.88;;;2.13;;
8490;SDS011;4282;49.986;7.938;2023-09-19T00:17:05;3.72;;;2.10;;
8490;SDS011;4282;49.986;7.938;2023-09-19T00:19:34;2.42;;;2.13;;
8490;SDS011;4282;49.986;7.938;2023-09-19T00:22:03;3.83;;;2.28;;
8490;SDS011;4282;49.986;7.938;2023-09-19T00:24:32;2.97;;;2.08;;
8490;SDS011;4282;49.986;7.938;2023-09-19T00:27:00;2.38;;;2.17;;
8490;SDS011;4282;49.986;7.938;2023-09-19T00:29:29;3.25;;;2.05;;
8490;SDS011;4282;49.986;7.938;2023-09-19T00:32:00;3.43;;;1.70;;
8490;SDS011;4282;49.986;7.938;2023-09-19T00:34:30;2.97;;;2.27;;
8490;SDS011;4282;49.986;7.938;2023-09-19T00:36:59;3.25;;;2.05;;
8490;SDS011;4282;49.986;7.938;2023-09-19T00:39:28;4.63;;;2.50;;
8490;SDS011;4282;49.986;7.938;2023-09-19T00:41:57;4.30;;;1.95;;
8490;SDS011;4282;49.986;7.938;2023-09-19T00:44:30;3.60;;;2.27;;
8490;SDS011;4282;49.986;7.938;2023-09-19T00:47:02;3.67;;;2.22;;
8490;SDS011;4282;49.986;7.938;2023-09-19T00:49:30;3.57;;;1.87;;
8490;SDS011;4282;49.986;7.938;2023-09-19T00:52:03;3.40;;;1.70;;
8490;SDS011;4282;49.986;7.938;2023-09-19T00:54:35;3.70;;;1.90;;
8490;SDS011;4282;49.986;7.938;2023-09-19T00:57:04;4.50;;;2.13;;
8490;SDS011;4282;49.986;7.938;2023-09-19T00:59:33;4.72;;;2.13;;
8490;SDS011;4282;49.986;7.938;2023-09-19T01:02:04;4.95;;;1.92;;
8490;SDS011;4282;49.986;7.938;2023-09-19T01:04:33;4.43;;;2.23;;
8490;SDS011;4282;49.986;7.938;2023-09-19T01:07:02;3.20;;;1.90;;
8490;SDS011;4282;49.986;7.938;2023-09-19T01:09:31;2.97;;;2.07;;
8490;SDS011;4282;49.986;7.938;2023-09-19T01:12:01;2.80;;;2.00;;
8490;SDS011;4282;49.986;7.938;2023-09-19T01:14:34;2.73;;;1.70;;
8490;SDS011;4282;49.986;7.938;2023-09-19T01:17:09;2.07;;;1.80;;
8490;SDS011;4282;49.986;7.938;2023-09-19T01:19:56;2.03;;;1.70;;
8490;SDS011;4282;49.986;7.938;2023-09-19T01:22:47;3.20;;;1.70;;
8490;SDS011;4282;49.986;7.938;2023-09-19T01:25:35;2.50;;;1.60;;
8490;SDS011;4282;49.986;7.938;2023-09-19T01:28:20;2.97;;;2.00;;
8490;SDS011;4282;49.986;7.938;2023-09-19T01:31:04;2.40;;;1.50;;
8490;SDS011;4282;49.986;7.938;2023-09-19T01:36:30;2.83;;;1.90;;
8490;SDS011;4282;49.986;7.938;2023-09-19T01:39:01;1.97;;;1.80;;
8490;SDS011;4282;49.986;7.938;2023-09-19T01:41:38;2.80;;;1.90;;
8490;SDS011;4282;49.986;7.938;2023-09-19T01:44:11;4.60;;;1.90;;
8490;SDS011;4282;49.986;7.938;2023-09-19T01:46:46;4.53;;;1.80;;
8490;SDS011;4282;49.986;7.938;2023-09-19T01:49:18;3.40;;;2.03;;
8490;SDS011;4282;49.986;7.938;2023-09-19T01:51:52;2.80;;;1.90;;
8490;SDS011;4282;49.986;7.938;2023-09-19T01:54:25;5.57;;;2.20;;
8490;SDS011;4282;49.986;7.938;2023-09-19T01:56:57;4.37;;;2.10;;
8490;SDS011;4282;49.986;7.938;2023-09-19T01:59:37;2.17;;;1.80;;
8490;SDS011;4282;49.986;7.938;2023-09-19T02:02:13;4.37;;;1.80;;
8490;SDS011;4282;49.986;7.938;2023-09-19T02:04:42;2.43;;;1.60;;
8490;SDS011;4282;49.986;7.938;2023-09-19T02:07:11;1.93;;;1.70;;
8490;SDS011;4282;49.986;7.938;2023-09-19T02:09:40;2.30;;;1.70;;
8490;SDS011;4282;49.986;7.938;2023-09-19T02:12:08;3.43;;;1.60;;
8490;SDS011;4282;49.986;7.938;2023-09-19T02:14:36;3.80;;;2.00;;
8490;SDS011;4282;49.986;7.938;2023-09-19T02:17:05;2.07;;;1.80;;
8490;SDS011;4282;49.986;7.938;2023-09-19T02:19:39;3.20;;;1.77;;
8490;SDS011;4282;49.986;7.938;2023-09-19T02:22:07;3.27;;;1.77;;
8490;SDS011;4282;49.986;7.938;2023-09-19T02:24:35;2.97;;;1.73;;
8490;SDS011;4282;49.986;7.938;2023-09-19T02:27:04;2.70;;;1.90;;
8490;SDS011;4282;49.986;7.938;2023-09-19T02:29:33;2.30;;;1.57;;
8490;SDS011;4282;49.986;7.938;2023-09-19T02:32:01;5.47;;;1.70;;
8490;SDS011;4282;49.986;7.938;2023-09-19T02:34:31;2.73;;;1.53;;
8490;SDS011;4282;49.986;7.938;2023-09-19T02:37:03;2.97;;;1.77;;
8490;SDS011;4282;49.986;7.938;2023-09-19T02:39:33;1.60;;;1.47;;
8490;SDS011;4282;49.986;7.938;2023-09-19T02:42:02;1.90;;;1.80;;
8490;SDS011;4282;49.986;7.938;2023-09-19T02:44:31;2.33;;;1.67;;
8490;SDS011;4282;49.986;7.938;2023-09-19T02:47:00;2.07;;;1.83;;
8490;SDS011;4282;49.986;7.938;2023-09-19T02:49:29;3.63;;;1.90;;
8490;SDS011;4282;49.986;7.938;2023-09-19T02:51:57;4.43;;;1.50;;
8490;SDS011;4282;49.986;7.938;2023-09-19T02:54:28;4.63;;;1.87;;
8490;SDS011;4282;49.986;7.938;2023-09-19T02:56:57;2.37;;;1.60;;
8490;SDS011;4282;49.986;7.938;2023-09-19T02:59:25;3.90;;;1.57;;
8490;SDS011;4282;49.986;7.938;2023-09-19T03:01:54;3.20;;;1.57;;
8490;SDS011;4282;49.986;7.938;2023-09-19T03:04:23;4.00;;;1.90;;
8490;SDS011;4282;49.986;7.938;2023-09-19T03:06:52;3.53;;;1.70;;
8490;SDS011;4282;49.986;7.938;2023-09-19T03:09:25;5.40;;;1.50;;
8490;SDS011;4282;49.986;7.938;2023-09-19T03:11:56;2.33;;;1.70;;
8490;SDS011;4282;49.986;7.938;2023-09-19T03:14:24;4.03;;;1.87;;
8490;SDS011;4282;49.986;7.938;2023-09-19T03:16:55;3.67;;;1.70;;
8490;SDS011;4282;49.986;7.938;2023-09-19T03:19:24;2.43;;;1.70;;
8490;SDS011;4282;49.986;7.938;2023-09-19T03:21:53;4.80;;;1.90;;
8490;SDS011;4282;49.986;7.938;2023-09-19T03:24:22;5.37;;;1.80;;
8490;SDS011;4282;49.986;7.938;2023-09-19T03:26:51;5.47;;;1.80;;
8490;SDS011;4282;49.986;7.938;2023-09-19T03:29:22;2.30;;;1.40;;
8490;SDS011;4282;49.986;7.938;2023-09-19T03:31:50;3.83;;;1.80;;
8490;SDS011;4282;49.986;7.938;2023-09-19T03:34:19;3.57;;;1.90;;
8490;SDS011;4282;49.986;7.938;2023-09-19T03:36:47;2.03;;;1.80;;
8490;SDS011;4282;49.986;7.938;2023-09-19T03:39:16;2.47;;;2.00;;
8490;SDS011;4282;49.986;7.938;2023-09-19T03:41:44;2.80;;;1.93;;
8490;SDS011;4282;49.986;7.938;2023-09-19T03:44:13;2.00;;;1.40;;
8490;SDS011;4282;49.986;7.938;2023-09-19T03:46:43;2.13;;;1.90;;
8490;SDS011;4282;49.986;7.938;2023-09-19T03:49:12;4.40;;;1.70;;
8490;SDS011;4282;49.986;7.938;2023-09-19T03:51:40;4.00;;;1.77;;
8490;SDS011;4282;49.986;7.938;2023-09-19T03:54:09;5.07;;;1.80;;
8490;SDS011;4282;49.986;7.938;2023-09-19T03:56:37;5.17;;;2.20;;
8490;SDS011;4282;49.986;7.938;2023-09-19T03:59:06;3.27;;;1.80;;
8490;SDS011;4282;49.986;7.938;2023-09-19T04:01:34;4.90;;;1.90;;
8490;SDS011;4282;49.986;7.938;2023-09-19T04:04:05;2.70;;;1.67;;
8490;SDS011;4282;49.986;7.938;2023-09-19T04:06:37;3.30;;;1.87;;
8490;SDS011;4282;49.986;7.938;2023-09-19T04:09:05;5.23;;;1.80;;
8490;SDS011;4282;49.986;7.938;2023-09-19T04:11:34;2.00;;;1.80;;
8490;SDS011;4282;49.986;7.938;2023-09-19T04:14:03;5.97;;;2.07;;
8490;SDS011;4282;49.986;7.938;2023-09-19T04:16:32;2.87;;;1.80;;
8490;SDS011;4282;49.986;7.938;2023-09-19T04:19:00;4.63;;;1.80;;
8490;SDS011;4282;49.986;7.938;2023-09-19T04:21:31;3.73;;;1.70;;
8490;SDS011;4282;49.986;7.938;2023-09-19T04:23:59;3.47;;;1.93;;
8490;SDS011;4282;49.986;7.938;2023-09-19T04:26:28;3.23;;;1.80;;
8490;SDS011;4282;49.986;7.938;2023-09-19T04:28:56;3.27;;;1.80;;
8490;SDS011;4282;49.986;7.938;2023-09-19T04:31:26;2.70;;;2.00;;
8490;SDS011;4282;49.986;7.938;2023-09-19T04:33:54;4.77;;;1.77;;
8490;SDS011;4282;49.986;7.938;2023-09-19T04:36:24;3.30;;;1.80;;
8490;SDS011;4282;49.986;7.938;2023-09-19T04:38:55;3.90;;;2.13;;
8490;SDS011;4282;49.986;7.938;2023-09-19T04:41:23;3.00;;;1.77;;
8490;SDS011;4282;49.986;7.938;2023-09-19T04:43:51;3.00;;;1.63;;
8490;SDS011;4282;49.986;7.938;2023-09-19T04:46:19;2.40;;;1.70;;
8490;SDS011;4282;49.986;7.938;2023-09-19T04:48:48;3.27;;;1.90;;
8490;SDS011;4282;49.986;7.938;2023-09-19T04:51:16;4.90;;;1.87;;
8490;SDS011;4282;49.986;7.938;2023-09-19T04:53:45;4.43;;;2.27;;
8490;SDS011;4282;49.986;7.938;2023-09-19T04:56:16;3.63;;;1.70;;
8490;SDS011;4282;49.986;7.938;2023-09-19T04:58:46;1.93;;;1.67;;
8490;SDS011;4282;49.986;7.938;2023-09-19T05:01:14;4.07;;;1.90;;
8490;SDS011;4282;49.986;7.938;2023-09-19T05:03:42;5.70;;;2.13;;
8490;SDS011;4282;49.986;7.938;2023-09-19T05:06:14;2.63;;;2.33;;
8490;SDS011;4282;49.986;7.938;2023-09-19T05:08:42;6.47;;;2.30;;
8490;SDS011;4282;49.986;7.938;2023-09-19T05:11:11;4.67;;;2.67;;
8490;SDS011;4282;49.986;7.938;2023-09-19T05:13:42;3.70;;;2.60;;
8490;SDS011;4282;49.986;7.938;2023-09-19T05:16:10;3.60;;;2.33;;
8490;SDS011;4282;49.986;7.938;2023-09-19T05:18:38;3.80;;;2.57;;
8490;SDS011;4282;49.986;7.938;2023-09-19T05:21:07;6.33;;;2.70;;
8490;SDS011;4282;49.986;7.938;2023-09-19T05:23:35;3.97;;;2.30;;
8490;SDS011;4282;49.986;7.938;2023-09-19T05:26:04;5.40;;;2.67;;
8490;SDS011;4282;49.986;7.938;2023-09-19T05:28:32;3.63;;;2.13;;
8490;SDS011;4282;49.986;7.938;2023-09-19T05:31:03;4.93;;;3.07;;
8490;SDS011;4282;49.986;7.938;2023-09-19T05:33:31;5.03;;;2.40;;
8490;SDS011;4282;49.986;7.938;2023-09-19T05:35:59;3.00;;;2.00;;
8490;SDS011;4282;49.986;7.938;2023-09-19T05:38:28;3.27;;;2.00;;
8490;SDS011;4282;49.986;7.938;2023-09-19T05:40:57;3.53;;;1.93;;
8490;SDS011;4282;49.986;7.938;2023-09-19T05:43:27;4.43;;;2.20;;
8490;SDS011;4282;49.986;7.938;2023-09-19T05:45:55;5.10;;;2.30;;
8490;SDS011;4282;49.986;7.938;2023-09-19T05:48:26;2.40;;;1.90;;
8490;SDS011;4282;49.986;7.938;2023-09-19T05:50:54;4.87;;;2.40;;
8490;SDS011;4282;49.986;7.938;2023-09-19T05:53:22;3.20;;;2.20;;
8490;SDS011;4282;49.986;7.938;2023-09-19T05:55:50;3.87;;;2.00;;
8490;SDS011;4282;49.986;7.938;2023-09-19T05:58:19;7.57;;;2.37;;
8490;SDS011;4282;49.986;7.938;2023-09-19T06:00:47;4.40;;;2.23;;
8490;SDS011;4282;49.986;7.938;2023-09-19T06:03:15;2.53;;;2.23;;
8490;SDS011;4282;49.986;7.938;2023-09-19T06:05:46;3.13;;;1.93;;
8490;SDS011;4282;49.986;7.938;2023-09-19T06:08:14;4.97;;;2.60;;
8490;SDS011;4282;49.986;7.938;2023-09-19T06:10:43;5.33;;;1.60;;
8490;SDS011;4282;49.986;7.938;2023-09-19T06:13:11;5.67;;;2.03;;
8490;SDS011;4282;49.986;7.938;2023-09-19T06:15:40;2.47;;;2.07;;
8490;SDS011;4282;49.986;7.938;2023-09-19T06:18:10;3.47;;;2.40;;
8490;SDS011;4282;49.986;7.938;2023-09-19T06:20:42;3.73;;;2.00;;
8490;SDS011;4282;49.986;7.938;2023-09-19T06:23:13;3.13;;;1.87;;
8490;SDS011;4282;49.986;7.938;2023-09-19T06:25:42;3.63;;;2.23;;
8490;SDS011;4282;49.986;7.938;2023-09-19T06:28:11;2.90;;;2.23;;
8490;SDS011;4282;49.986;7.938;2023-09-19T06:30:43;2.97;;;2.50;;
8490;SDS011;4282;49.986;7.938;2023-09-19T06:33:11;2.53;;;1.83;;
8490;SDS011;4282;49.986;7.938;2023-09-19T06:35:39;1.93;;;1.70;;
8490;SDS011;4282;49.986;7.938;2023-09-19T06:38:09;6.73;;;2.17;;
8490;SDS011;4282;49.986;7.938;2023-09-19T06:40:40;4.07;;;2.10;;
8490;SDS011;4282;49.986;7.938;2023-09-19T06:43:09;3.33;;;1.90;;
8490;SDS011;4282;49.986;7.938;2023-09-19T06:45:39;3.30;;;2.07;;
8490;SDS011;4282;49.986;7.938;2023-09-19T06:48:07;3.10;;;2.10;;
8490;SDS011;4282;49.986;7.938;2023-09-19T06:50:37;6.17;;;2.43;;
8490;SDS011;4282;49.986;7.938;2023-09-19T06:53:06;5.43;;;2.20;;
8490;SDS011;4282;49.986;7.938;2023-09-19T06:55:37;4.83;;;1.90;;
8490;SDS011;4282;49.986;7.938;2023-09-19T06:58:05;3.30;;;2.33;;
8490;SDS011;4282;49.986;7.938;2023-09-19T07:00:35;3.20;;;1.77;;
8490;SDS011;4282;49.986;7.938;2023-09-19T07:03:04;5.60;;;1.70;;
8490;SDS011;4282;49.986;7.938;2023-09-19T07:05:36;4.30;;;1.97;;
8490;SDS011;4282;49.986;7.938;2023-09-19T07:08:05;4.37;;;2.10;;
8490;SDS011;4282;49.986;7.938;2023-09-19T07:10:38;2.57;;;2.03;;
8490;SDS011;4282;49.986;7.938;2023-09-19T07:13:13;3.10;;;1.97;;
8490;SDS011;4282;49.986;7.938;2023-09-19T07:15:43;3.20;;;1.80;;
8490;SDS011;4282;49.986;7.938;2023-09-19T07:18:15;3.43;;;2.03;;
8490;SDS011;4282;49.986;7.938;2023-09-19T07:20:45;8.17;;;2.03;;
8490;SDS011;4282;49.986;7.938;2023-09-19T07:23:15;4.97;;;2.10;;
8490;SDS011;4282;49.986;7.938;2023-09-19T07:25:47;4.90;;;2.63;;
8490;SDS011;4282;49.986;7.938;2023-09-19T07:28:15;3.47;;;1.90;;
8490;SDS011;4282;49.986;7.938;2023-09-19T07:30:44;5.20;;;1.80;;
8490;SDS011;4282;49.986;7.938;2023-09-19T07:33:12;3.23;;;1.70;;
8490;SDS011;4282;49.986;7.938;2023-09-19T07:35:40;2.83;;;1.60;;
8490;SDS011;4282;49.986;7.938;2023-09-19T07:38:13;3.50;;;1.63;;
8490;SDS011;4282;49.986;7.938;2023-09-19T07:40:42;3.63;;;1.67;;
8490;SDS011;4282;49.986;7.938;2023-09-19T07:43:13;4.27;;;1.87;;
8490;SDS011;4282;49.986;7.938;2023-09-19T07:45:43;3.30;;;1.60;;
8490;SDS011;4282;49.986;7.938;2023-09-19T07:48:12;3.97;;;1.87;;
8490;SDS011;4282;49.986;7.938;2023-09-19T07:50:41;8.27;;;1.90;;
8490;SDS011;4282;49.986;7.938;2023-09-19T07:53:11;3.13;;;1.60;;
8490;SDS011;4282;49.986;7.938;2023-09-19T07:55:40;4.13;;;1.80;;
8490;SDS011;4282;49.986;7.938;2023-09-19T07:58:15;6.03;;;2.00;;
8490;SDS011;4282;49.986;7.938;2023-09-19T08:00:43;4.73;;;1.80;;
8490;SDS011;4282;49.986;7.938;2023-09-19T08:03:12;6.63;;;1.93;;
8490;SDS011;4282;49.986;7.938;2023-09-19T08:05:40;4.70;;;1.83;;
8490;SDS011;4282;49.986;7.938;2023-09-19T08:08:08;3.83;;;1.93;;
8490;SDS011;4282;49.986;7.938;2023-09-19T08:10:38;4.87;;;1.97;;
8490;SDS011;4282;49.986;7.938;2023-09-19T08:13:07;6.73;;;1.70;;
8490;SDS011;4282;49.986;7.938;2023-09-19T08:15:45;4.63;;;2.13;;
8490;SDS011;4282;49.986;7.938;2023-09-19T08:18:13;5.57;;;2.13;;
8490;SDS011;4282;49.986;7.938;2023-09-19T08:20:41;4.77;;;1.90;;
8490;SDS011;4282;49.986;7.938;2023-09-19T08:23:11;6.73;;;2.00;;
8490;SDS011;4282;49.986;7.938;2023-09-19T08:25:39;4.23;;;2.17;;
8490;SDS011;4282;49.986;7.938;2023-09-19T08:28:07;5.63;;;1.90;;
8490;SDS011;4282;49.986;7.938;2023-09-19T08:30:37;5.63;;;1.80;;
8490;SDS011;4282;49.986;7.938;2023-09-19T08:33:08;5.20;;;2.53;;
8490;SDS011;4282;49.986;7.938;2023-09-19T08:35:36;6.13;;;1.87;;
8490;SDS011;4282;49.986;7.938;2023-09-19T08:38:07;3.77;;;1.60;;
8490;SDS011;4282;49.986;7.938;2023-09-19T08:40:37;5.25;;;2.05;;
8490;SDS011;4282;49.986;7.938;2023-09-19T08:43:07;2.93;;;2.07;;
8490;SDS011;4282;49.986;7.938;2023-09-19T08:45:35;4.03;;;1.77;;
8490;SDS011;4282;49.986;7.938;2023-09-19T08:48:12;9.43;;;2.20;;
8490;SDS011;4282;49.986;7.938;2023-09-19T08:50:47;6.87;;;2.03;;
8490;SDS011;4282;49.986;7.938;2023-09-19T08:53:19;3.85;;;2.13;;
8490;SDS011;4282;49.986;7.938;2023-09-19T08:55:52;6.53;;;2.00;;
8490;SDS011;4282;49.986;7.938;2023-09-19T08:58:23;6.38;;;2.03;;
8490;SDS011;4282;49.986;7.938;2023-09-19T09:00:54;6.03;;;2.00;;
8490;SDS011;4282;49.986;7.938;2023-09-19T09:03:26;6.10;;;1.65;;
8490;SDS011;4282;49.986;7.938;2023-09-19T09:05:54;9.40;;;2.05;;
8490;SDS011;4282;49.986;7.938;2023-09-19T09:08:23;6.72;;;2.00;;
8490;SDS011;4282;49.986;7.938;2023-09-19T09:10:51;8.90;;;2.28;;
8490;SDS011;4282;49.986;7.938;2023-09-19T09:13:20;4.13;;;1.80;;
8490;SDS011;4282;49.986;7.938;2023-09-19T09:15:50;7.13;;;2.45;;
8490;SDS011;4282;49.986;7.938;2023-09-19T09:18:19;7.57;;;2.50;;
8490;SDS011;4282;49.986;7.938;2023-09-19T09:20:50;5.40;;;1.83;;
8490;SDS011;4282;49.986;7.938;2023-09-19T09:23:20;4.68;;;1.65;;
8490;SDS011;4282;49.986;7.938;2023-09-19T09:25:50;4.63;;;1.65;;
8490;SDS011;4282;49.986;7.938;2023-09-19T09:28:24;4.68;;;1.63;;
8490;SDS011;4282;49.986;7.938;2023-09-19T09:30:54;8.27;;;2.08;;
8490;SDS011;4282;49.986;7.938;2023-09-19T09:33:23;5.07;;;2.05;;
8490;SDS011;4282;49.986;7.938;2023-09-19T09:35:56;10.13;;;2.38;;
8490;SDS011;4282;49.986;7.938;2023-09-19T09:38:26;6.72;;;2.65;;
8490;SDS011;4282;49.986;7.938;2023-09-19T09:40:57;6.63;;;2.10;;
8490;SDS011;4282;49.986;7.938;2023-09-19T09:43:32;6.00;;;2.05;;
8490;SDS011;4282;49.986;7.938;2023-09-19T09:46:08;5.45;;;1.90;;
8490;SDS011;4282;49.986;7.938;2023-09-19T09:49:05;4.90;;;1.65;;
8490;SDS011;4282;49.986;7.938;2023-09-19T09:51:44;6.43;;;1.83;;
8490;SDS011;4282;49.986;7.938;2023-09-19T09:54:23;6.88;;;2.58;;
8490;SDS011;4282;49.986;7.938;2023-09-19T09:56:56;5.30;;;2.00;;
8490;SDS011;4282;49.986;7.938;2023-09-19T09:59:48;7.45;;;2.13;;
8490;SDS011;4282;49.986;7.938;2023-09-19T10:02:19;2.55;;;1.40;;
8490;SDS011;4282;49.986;7.938;2023-09-19T10:04:54;6.65;;;2.58;;
8490;SDS011;4282;49.986;7.938;2023-09-19T10:07:37;6.97;;;2.28;;
8490;SDS011;4282;49.986;7.938;2023-09-19T10:10:07;6.13;;;2.88;;
8490;SDS011;4282;49.986;7.938;2023-09-19T10:12:45;5.90;;;2.30;;
8490;SDS011;4282;49.986;7.938;2023-09-19T10:15:15;6.72;;;2.25;;
8490;SDS011;4282;49.986;7.938;2023-09-19T10:17:46;5.18;;;2.25;;
8490;SDS011;4282;49.986;7.938;2023-09-19T10:20:15;3.90;;;1.85;;
8490;SDS011;4282;49.986;7.938;2023-09-19T10:23:04;7.97;;;2.35;;
8490;SDS011;4282;49.986;7.938;2023-09-19T10:25:36;8.27;;;2.25;;
8490;SDS011;4282;49.986;7.938;2023-09-19T10:28:05;5.25;;;1.90;;
8490;SDS011;4282;49.986;7.938;2023-09-19T10:30:36;4.93;;;1.55;;
8490;SDS011;4282;49.986;7.938;2023-09-19T10:33:10;4.75;;;2.03;;
8490;SDS011;4282;49.986;7.938;2023-09-19T10:35:39;4.65;;;1.77;;
8490;SDS011;4282;49.986;7.938;2023-09-19T10:38:13;2.88;;;1.88;;
8490;SDS011;4282;49.986;7.938;2023-09-19T10:40:42;5.20;;;1.77;;
8490;SDS011;4282;49.986;7.938;2023-09-19T10:43:11;5.90;;;1.63;;
8490;SDS011;4282;49.986;7.938;2023-09-19T10:45:43;6.50;;;2.08;;
8490;SDS011;4282;49.986;7.938;2023-09-19T10:48:14;4.43;;;1.65;;
8490;SDS011;4282;49.986;7.938;2023-09-19T10:50:45;2.88;;;1.55;;
8490;SDS011;4282;49.986;7.938;2023-09-19T10:53:18;6.60;;;1.73;;
8490;SDS011;4282;49.986;7.938;2023-09-19T10:55:49;7.00;;;2.22;;
8490;SDS011;4282;49.986;7.938;2023-09-19T10:58:24;4.53;;;1.52;;
8490;SDS011;4282;49.986;7.938;2023-09-19T11:00:59;4.95;;;1.50;;
8490;SDS011;4282;49.986;7.938;2023-09-19T11:03:32;6.15;;;1.95;;
8490;SDS011;4282;49.986;7.938;2023-09-19T11:06:05;5.15;;;1.77;;
8490;SDS011;4282;49.986;7.938;2023-09-19T11:08:57;3.90;;;1.40;;
8490;SDS011;4282;49.986;7.938;2023-09-19T11:11:44;4.40;;;1.77;;
8490;SDS011;4282;49.986;7.938;2023-09-19T11:14:30;4.60;;;1.85;;
8490;SDS011;4282;49.986;7.938;2023-09-19T11:25:55;2.63;;;1.40;;
8490;SDS011;4282;49.986;7.938;2023-09-19T11:28:27;5.82;;;1.80;;
8490;SDS011;4282;49.986;7.938;2023-09-19T11:30:55;4.47;;;1.75;;
8490;SDS011;4282;49.986;7.938;2023-09-19T11:33:24;5.07;;;1.67;;
8490;SDS011;4282;49.986;7.938;2023-09-19T11:36:00;4.75;;;1.58;;
8490;SDS011;4282;49.986;7.938;2023-09-19T11:41:38;3.97;;;1.98;;
8490;SDS011;4282;49.986;7.938;2023-09-19T11:47:03;6.35;;;1.90;;
8490;SDS011;4282;49.986;7.938;2023-09-19T11:49:34;2.95;;;1.60;;
8490;SDS011;4282;49.986;7.938;2023-09-19T11:52:03;4.50;;;1.60;;
8490;SDS011;4282;49.986;7.938;2023-09-19T11:54:33;3.45;;;1.40;;
8490;SDS011;4282;49.986;7.938;2023-09-19T11:57:09;4.03;;;1.70;;
8490;SDS011;4282;49.986;7.938;2023-09-19T11:59:38;3.25;;;1.58;;
8490;SDS011;4282;49.986;7.938;2023-09-19T12:02:07;3.85;;;1.55;;
8490;SDS011;4282;49.986;7.938;2023-09-19T12:04:36;4.45;;;1.85;;
8490;SDS011;4282;49.986;7.938;2023-09-19T12:07:08;4.18;;;1.67;;
8490;SDS011;4282;49.986;7.938;2023-09-19T12:09:40;3.42;;;1.60;;
8490;SDS011;4282;49.986;7.938;2023-09-19T12:12:15;4.45;;;1.73;;
8490;SDS011;4282;49.986;7.938;2023-09-19T12:14:47;2.60;;;1.63;;
8490;SDS011;4282;49.986;7.938;2023-09-19T12:17:15;5.47;;;1.80;;
8490;SDS011;4282;49.986;7.938;2023-09-19T12:19:49;3.00;;;1.60;;
8490;SDS011;4282;49.986;7.938;2023-09-19T12:22:19;3.13;;;1.50;;
8490;SDS011;4282;49.986;7.938;2023-09-19T12:24:48;4.10;;;1.60;;
8490;SDS011;4282;49.986;7.938;2023-09-19T12:27:22;3.65;;;1.70;;
8490;SDS011;4282;49.986;7.938;2023-09-19T12:29:52;6.32;;;1.83;;
8490;SDS011;4282;49.986;7.938;2023-09-19T12:32:33;2.85;;;1.50;;
8490;SDS011;4282;49.986;7.938;2023-09-19T12:35:02;7.13;;;1.83;;
8490;SDS011;4282;49.986;7.938;2023-09-19T12:37:35;3.10;;;1.40;;
8490;SDS011;4282;49.986;7.938;2023-09-19T12:40:04;5.65;;;2.03;;
8490;SDS011;4282;49.986;7.938;2023-09-19T12:42:43;5.47;;;1.52;;
8490;SDS011;4282;49.986;7.938;2023-09-19T12:45:12;4.88;;;1.40;;
8490;SDS011;4282;49.986;7.938;2023-09-19T12:53:31;3.28;;;1.58;;
8490;SDS011;4282;49.986;7.938;2023-09-19T12:56:03;4.82;;;1.50;;
8490;SDS011;4282;49.986;7.938;2023-09-19T12:58:36;3.45;;;1.40;;
8490;SDS011;4282;49.986;7.938;2023-09-19T13:01:16;4.97;;;1.70;;
8490;SDS011;4282;49.986;7.938;2023-09-19T13:03:45;4.18;;;1.60;;
8490;SDS011;4282;49.986;7.938;2023-09-19T13:06:13;5.15;;;1.83;;
8490;SDS011;4282;49.986;7.938;2023-09-19T13:08:42;4.38;;;1.40;;
8490;SDS011;4282;49.986;7.938;2023-09-19T13:11:19;5.78;;;1.40;;
8490;SDS011;4282;49.986;7.938;2023-09-19T13:13:50;3.35;;;1.58;;
8490;SDS011;4282;49.986;7.938;2023-09-19T13:19:41;4.90;;;1.50;;
8490;SDS011;4282;49.986;7.938;2023-09-19T13:25:08;3.92;;;1.50;;
8490;SDS011;4282;49.986;7.938;2023-09-19T13:27:40;2.85;;;1.50;;
8490;SDS011;4282;49.986;7.938;2023-09-19T13:30:09;3.17;;;1.65;;
8490;SDS011;4282;49.986;7.938;2023-09-19T13:32:41;2.70;;;1.40;;
8490;SDS011;4282;49.986;7.938;2023-09-19T13:35:10;4.25;;;1.45;;
8490;SDS011;4282;49.986;7.938;2023-09-19T13:37:39;3.17;;;1.35;;
8490;SDS011;4282;49.986;7.938;2023-09-19T13:40:12;4.47;;;1.38;;
8490;SDS011;4282;49.986;7.938;2023-09-19T13:42:42;3.30;;;1.48;;
8490;SDS011;4282;49.986;7.938;2023-09-19T13:45:11;3.53;;;1.35;;
8490;SDS011;4282;49.986;7.938;2023-09-19T13:47:45;2.75;;;1.30;;
8490;SDS011;4282;49.986;7.938;2023-09-19T13:50:13;2.33;;;1.42;;
8490;SDS011;4282;49.986;7.938;2023-09-19T13:52:42;4.00;;;1.85;;
8490;SDS011;4282;49.986;7.938;2023-09-19T13:55:12;4.93;;;1.60;;
8490;SDS011;4282;49.986;7.938;2023-09-19T13:57:45;3.05;;;1.38;;
8490;SDS011;4282;49.986;7.938;2023-09-19T14:00:15;3.58;;;1.17;;
8490;SDS011;4282;49.986;7.938;2023-09-19T14:02:46;5.10;;;1.25;;
8490;SDS011;4282;49.986;7.938;2023-09-19T14:05:14;4.45;;;1.52;;
8490;SDS011;4282;49.986;7.938;2023-09-19T14:07:43;2.47;;;1.13;;
8490;SDS011;4282;49.986;7.938;2023-09-19T14:10:12;2.72;;;1.63;;
8490;SDS011;4282;49.986;7.938;2023-09-19T14:12:40;2.35;;;1.30;;
8490;SDS011;4282;49.986;7.938;2023-09-19T14:15:10;3.03;;;1.50;;
8490;SDS011;4282;49.986;7.938;2023-09-19T14:17:38;4.78;;;1.38;;
8490;SDS011;4282;49.986;7.938;2023-09-19T14:20:10;2.35;;;1.08;;
8490;SDS011;4282;49.986;7.938;2023-09-19T14:22:39;3.63;;;1.38;;
8490;SDS011;4282;49.986;7.938;2023-09-19T14:25:07;2.63;;;1.20;;
8490;SDS011;4282;49.986;7.938;2023-09-19T14:27:36;3.22;;;1.35;;
8490;SDS011;4282;49.986;7.938;2023-09-19T14:30:05;2.10;;;1.20;;
8490;SDS011;4282;49.986;7.938;2023-09-19T14:32:34;2.03;;;1.33;;
8490;SDS011;4282;49.986;7.938;2023-09-19T14:35:03;3.00;;;1.33;;
8490;SDS011;4282;49.986;7.938;2023-09-19T14:37:34;4.78;;;1.50;;
8490;SDS011;4282;49.986;7.938;2023-09-19T14:40:03;4.05;;;1.40;;
8490;SDS011;4282;49.986;7.938;2023-09-19T14:42:34;2.47;;;1.42;;
8490;SDS011;4282;49.986;7.938;2023-09-19T14:45:04;3.00;;;1.35;;
8490;SDS011;4282;49.986;7.938;2023-09-19T14:47:34;3.47;;;1.35;;
8490;SDS011;4282;49.986;7.938;2023-09-19T14:50:03;3.38;;;1.30;;
8490;SDS011;4282;49.986;7.938;2023-09-19T14:52:36;3.85;;;1.35;;
8490;SDS011;4282;49.986;7.938;2023-09-19T14:55:05;2.08;;;1.00;;
8490;SDS011;4282;49.986;7.938;2023-09-19T14:57:36;3.22;;;1.15;;
8490;SDS011;4282;49.986;7.938;2023-09-19T15:00:06;2.55;;;1.30;;
8490;SDS011;4282;49.986;7.938;2023-09-19T15:02:37;1.85;;;1.38;;
8490;SDS011;4282;49.986;7.938;2023-09-19T15:05:06;3.10;;;1.40;;
8490;SDS011;4282;49.986;7.938;2023-09-19T15:07:38;4.18;;;1.45;;
8490;SDS011;4282;49.986;7.938;2023-09-19T15:10:07;1.55;;;1.13;;
8490;SDS011;4282;49.986;7.938;2023-09-19T15:12:38;1.88;;;1.13;;
8490;SDS011;4282;49.986;7.938;2023-09-19T15:15:06;2.58;;;1.25;;
8490;SDS011;4282;49.986;7.938;2023-09-19T15:17:36;2.92;;;1.20;;
8490;SDS011;4282;49.986;7.938;2023-09-19T15:20:05;2.15;;;0.95;;
8490;SDS011;4282;49.986;7.938;2023-09-19T15:22:34;2.38;;;1.10;;
8490;SDS011;4282;49.986;7.938;2023-09-19T15:25:05;1.30;;;1.00;;
8490;SDS011;4282;49.986;7.938;2023-09-19T15:27:35;1.45;;;1.23;;
8490;SDS011;4282;49.986;7.938;2023-09-19T15:30:04;2.80;;;1.33;;
8490;SDS011;4282;49.986;7.938;2023-09-19T15:32:33;2.88;;;1.08;;
8490;SDS011;4282;49.986;7.938;2023-09-19T15:35:02;4.10;;;1.35;;
8490;SDS011;4282;49.986;7.938;2023-09-19T15:37:30;3.28;;;1.30;;
8490;SDS011;4282;49.986;7.938;2023-09-19T15:39:59;1.48;;;1.20;;
8490;SDS011;4282;49.986;7.938;2023-09-19T15:42:30;2.90;;;1.27;;
8490;SDS011;4282;49.986;7.938;2023-09-19T15:44:58;2.47;;;1.20;;
8490;SDS011;4282;49.986;7.938;2023-09-19T15:47:26;2.58;;;1.58;;
8490;SDS011;4282;49.986;7.938;2023-09-19T15:49:55;2.75;;;1.23;;
8490;SDS011;4282;49.986;7.938;2023-09-19T15:52:24;4.35;;;1.23;;
8490;SDS011;4282;49.986;7.938;2023-09-19T15:54:52;3.03;;;1.30;;
8490;SDS011;4282;49.986;7.938;2023-09-19T15:57:20;2.85;;;1.02;;
8490;SDS011;4282;49.986;7.938;2023-09-19T15:59:52;1.83;;;1.15;;
8490;SDS011;4282;49.986;7.938;2023-09-19T16:02:20;3.35;;;1.27;;
8490;SDS011;4282;49.986;7.938;2023-09-19T16:04:50;1.95;;;1.00;;
8490;SDS011;4282;49.986;7.938;2023-09-19T16:07:18;4.15;;;1.50;;